createdAt,value
2019-02-26T00:00:23.815Z,15.90
2019-02-26T00:02:50.616Z,15.80
2019-02-26T00:05:17.338Z,15.80
2019-02-26T00:07:40.963Z,15.80
2019-02-26T00:10:07.902Z,15.80
2019-02-26T00:12:35.582Z,15.70
2019-02-26T00:15:02.500Z,15.80
2019-02-26T00:17:26.482Z,15.80
2019-02-26T00:19:52.626Z,15.80
2019-02-26T00:22:18.775Z,15.80
2019-02-26T00:24:46.563Z,15.70
2019-02-26T00:27:11.118Z,15.80
2019-02-26T00:29:37.301Z,15.70
2019-02-26T00:32:03.449Z,15.70
2019-02-26T00:34:30.520Z,15.70
2019-02-26T00:36:57.329Z,15.80
2019-02-26T00:39:23.217Z,15.80
2019-02-26T00:41:51.273Z,15.80
2019-02-26T00:44:14.432Z,15.80
2019-02-26T00:46:40.586Z,15.70
2019-02-26T00:49:07.625Z,15.80
2019-02-26T00:51:32.940Z,15.70
2019-02-26T00:53:59.875Z,15.70
2019-02-26T00:56:27.377Z,15.70
2019-02-26T00:58:51.471Z,15.70
2019-02-26T01:01:19.399Z,15.80
2019-02-26T01:03:45.252Z,15.70
2019-02-26T01:06:10.030Z,15.70
2019-02-26T01:08:37.941Z,15.70
2019-02-26T01:11:03.908Z,15.70
2019-02-26T01:13:30.071Z,15.80
2019-02-26T01:15:55.598Z,15.80
2019-02-26T01:18:22.873Z,15.70
2019-02-26T01:20:50.293Z,15.70
2019-02-26T01:23:14.165Z,15.70
2019-02-26T01:25:40.332Z,15.70
2019-02-26T01:28:06.484Z,15.70
2019-02-26T01:30:35.692Z,15.70
2019-02-26T01:33:00.531Z,15.60
2019-02-26T01:35:26.185Z,15.70
2019-02-26T01:37:54.065Z,15.70
2019-02-26T01:40:20.607Z,15.70
2019-02-26T01:42:47.298Z,15.70
2019-02-26T01:45:10.675Z,15.70
2019-02-26T01:47:36.829Z,15.70
2019-02-26T01:50:04.165Z,15.70
2019-02-26T01:52:29.168Z,15.70
2019-02-26T01:54:57.907Z,15.70
2019-02-26T01:57:22.285Z,15.70
2019-02-26T01:59:50.254Z,15.70
2019-02-26T02:02:17.276Z,15.70
2019-02-26T02:04:41.616Z,15.70
2019-02-26T02:07:07.828Z,15.70
2019-02-26T02:09:33.990Z,15.60
2019-02-26T02:12:02.041Z,15.70
2019-02-26T02:14:26.353Z,15.70
2019-02-26T02:16:52.522Z,15.70
2019-02-26T02:19:22.239Z,15.70
2019-02-26T02:21:46.900Z,15.70
2019-02-26T02:24:12.872Z,15.60
2019-02-26T02:26:37.308Z,15.60
2019-02-26T02:29:03.464Z,15.70
2019-02-26T02:31:31.248Z,15.70
2019-02-26T02:33:55.985Z,15.60
2019-02-26T02:36:23.636Z,15.60
2019-02-26T02:38:48.351Z,15.60
2019-02-26T02:41:14.520Z,15.60
2019-02-26T02:43:40.660Z,15.60
2019-02-26T02:46:06.813Z,15.60
2019-02-26T02:48:32.958Z,15.60
2019-02-26T02:50:59.643Z,15.60
2019-02-26T02:53:27.407Z,15.60
2019-02-26T02:55:51.671Z,15.60
2019-02-26T02:58:20.124Z,15.60
2019-02-26T03:00:46.117Z,15.60
2019-02-26T03:03:10.873Z,15.60
2019-02-26T03:05:40.394Z,15.60
2019-02-26T03:08:03.243Z,15.60
2019-02-26T03:10:33.485Z,15.60
2019-02-26T03:12:57.641Z,15.60
2019-02-26T03:15:24.013Z,15.60
2019-02-26T03:17:47.981Z,15.60
2019-02-26T03:20:14.134Z,15.60
2019-02-26T03:22:43.130Z,15.60
2019-02-26T03:25:06.526Z,15.60
2019-02-26T03:27:34.266Z,15.60
2019-02-26T03:30:01.736Z,15.60
2019-02-26T03:32:25.091Z,15.60
2019-02-26T03:34:51.263Z,15.50
2019-02-26T03:37:17.413Z,15.60
2019-02-26T03:39:43.659Z,15.60
2019-02-26T03:42:10.570Z,15.50
2019-02-26T03:44:36.044Z,15.50
2019-02-26T03:47:02.975Z,15.50
2019-02-26T03:49:29.149Z,15.50
2019-02-26T03:51:59.079Z,15.50
2019-02-26T03:54:21.500Z,15.50
2019-02-26T03:56:47.661Z,15.50
2019-02-26T03:59:13.826Z,15.50
2019-02-26T04:01:40.746Z,15.50
2019-02-26T04:04:07.697Z,15.50
2019-02-26T04:06:35.560Z,15.50
2019-02-26T04:08:59.324Z,15.50
2019-02-26T04:11:27.676Z,15.50
2019-02-26T04:13:54.073Z,15.50
2019-02-26T04:16:17.893Z,15.50
2019-02-26T04:18:44.069Z,15.50
2019-02-26T04:21:12.037Z,15.50
2019-02-26T04:23:38.832Z,15.50
2019-02-26T04:26:03.353Z,15.50
2019-02-26T04:28:33.020Z,15.50
2019-02-26T04:30:55.718Z,15.50
2019-02-26T04:33:21.864Z,15.50
2019-02-26T04:35:50.033Z,15.50
2019-02-26T04:38:14.219Z,15.50
2019-02-26T04:40:40.970Z,15.50
2019-02-26T04:43:07.332Z,15.50
2019-02-26T04:45:32.860Z,15.50
2019-02-26T04:48:00.717Z,15.50
2019-02-26T04:50:28.703Z,15.50
2019-02-26T04:52:51.396Z,15.50
2019-02-26T04:55:17.554Z,15.50
2019-02-26T04:57:46.488Z,15.50
2019-02-26T05:00:10.545Z,15.50
2019-02-26T05:02:36.852Z,15.50
2019-02-26T05:05:03.009Z,15.50
2019-02-26T05:07:29.165Z,15.50
2019-02-26T05:09:56.859Z,15.50
2019-02-26T05:12:25.056Z,15.50
2019-02-26T05:14:47.723Z,15.50
2019-02-26T05:17:14.659Z,15.50
2019-02-26T05:19:43.490Z,15.50
2019-02-26T05:22:07.132Z,15.50
2019-02-26T05:24:33.213Z,15.50
2019-02-26T05:26:59.369Z,15.50
2019-02-26T05:29:25.529Z,15.50
2019-02-26T05:31:51.672Z,15.50
2019-02-26T05:34:20.154Z,15.40
2019-02-26T05:36:46.253Z,15.40
2019-02-26T05:39:10.236Z,15.40
2019-02-26T05:41:36.393Z,15.40
2019-02-26T05:44:06.591Z,15.40
2019-02-26T05:46:29.493Z,15.40
2019-02-26T05:48:54.926Z,15.40
2019-02-26T05:51:21.081Z,15.40
2019-02-26T05:53:47.252Z,15.40
2019-02-26T05:56:14.598Z,15.40
2019-02-26T05:58:41.890Z,15.40
2019-02-26T06:01:05.817Z,15.40
2019-02-26T06:03:32.016Z,15.40
2019-02-26T06:06:00.325Z,15.40
2019-02-26T06:08:26.745Z,15.40
2019-02-26T06:10:50.598Z,15.40
2019-02-26T06:13:16.769Z,15.40
2019-02-26T06:15:43.685Z,15.40
2019-02-26T06:18:09.855Z,15.40
2019-02-26T06:20:36.625Z,15.40
2019-02-26T06:23:02.212Z,15.40
2019-02-26T06:25:28.373Z,15.30
2019-02-26T06:27:54.526Z,15.30
2019-02-26T06:30:20.673Z,15.30
2019-02-26T06:32:46.821Z,15.30
2019-02-26T06:35:13.711Z,15.40
2019-02-26T06:37:40.263Z,15.30
2019-02-26T06:40:07.370Z,15.30
2019-02-26T06:42:33.273Z,15.30
2019-02-26T06:44:57.786Z,15.30
2019-02-26T06:47:26.058Z,15.30
2019-02-26T06:49:52.574Z,15.40
2019-02-26T06:52:18.033Z,15.30
2019-02-26T06:54:47.716Z,15.40
2019-02-26T06:57:09.533Z,15.30
2019-02-26T06:59:36.857Z,15.40
2019-02-26T07:02:01.912Z,15.30
2019-02-26T07:04:30.061Z,15.30
2019-02-26T07:06:55.360Z,15.40
2019-02-26T07:09:20.561Z,15.40
2019-02-26T07:11:46.707Z,15.40
2019-02-26T07:14:12.853Z,15.40
2019-02-26T07:16:40.366Z,15.40
2019-02-26T07:19:06.627Z,15.40
2019-02-26T07:21:31.402Z,15.40
2019-02-26T07:23:58.825Z,15.40
2019-02-26T07:26:23.757Z,15.40
2019-02-26T07:28:51.054Z,15.40
2019-02-26T07:31:16.107Z,15.40
2019-02-26T07:33:42.275Z,15.40
2019-02-26T07:36:09.188Z,15.40
2019-02-26T07:38:41.214Z,15.40
2019-02-26T07:41:03.631Z,15.40
2019-02-26T07:43:27.732Z,15.40
2019-02-26T07:45:53.887Z,15.40
2019-02-26T07:48:21.351Z,15.40
2019-02-26T07:50:48.354Z,15.40
2019-02-26T07:53:14.362Z,15.40
2019-02-26T07:55:41.950Z,15.40
2019-02-26T07:58:06.222Z,15.40
2019-02-26T08:00:32.894Z,15.40
2019-02-26T08:02:59.665Z,15.40
2019-02-26T08:05:26.041Z,15.40
2019-02-26T08:07:52.095Z,15.40
2019-02-26T08:10:16.936Z,15.40
2019-02-26T08:12:42.705Z,15.40
2019-02-26T08:15:10.384Z,15.40
2019-02-26T08:17:34.956Z,15.40
2019-02-26T08:20:04.264Z,15.40
2019-02-26T08:22:30.158Z,15.40
2019-02-26T08:24:55.528Z,15.40
2019-02-26T08:27:20.492Z,15.40
2019-02-26T08:29:46.641Z,15.40
2019-02-26T08:32:15.864Z,15.40
2019-02-26T08:34:39.755Z,15.40
2019-02-26T08:37:05.209Z,15.40
2019-02-26T08:39:31.366Z,15.40
2019-02-26T08:41:57.533Z,15.40
2019-02-26T08:44:23.684Z,15.40
2019-02-26T08:46:49.869Z,15.40
2019-02-26T08:49:17.907Z,15.40
2019-02-26T08:51:42.236Z,15.40
2019-02-26T08:54:08.389Z,15.40
2019-02-26T08:56:36.262Z,15.50
2019-02-26T08:59:01.772Z,15.50
2019-02-26T09:01:26.944Z,15.50
2019-02-26T09:03:53.791Z,15.50
2019-02-26T09:06:19.301Z,15.50
2019-02-26T09:08:45.451Z,15.40
2019-02-26T09:11:13.461Z,15.50
2019-02-26T09:13:38.878Z,15.50
2019-02-26T09:16:06.125Z,15.50
2019-02-26T09:18:31.537Z,15.50
2019-02-26T09:20:56.409Z,15.50
2019-02-26T09:23:23.544Z,15.50
2019-02-26T09:25:51.533Z,15.50
2019-02-26T09:28:15.012Z,15.50
2019-02-26T09:30:41.158Z,15.50
2019-02-26T09:33:09.065Z,15.50
2019-02-26T09:35:33.541Z,15.50
2019-02-26T09:38:00.995Z,15.50
2019-02-26T09:40:26.564Z,15.50
2019-02-26T09:42:54.590Z,15.60
2019-02-26T09:45:20.407Z,15.50
2019-02-26T09:47:44.933Z,15.60
2019-02-26T09:50:12.780Z,15.60
2019-02-26T09:52:36.873Z,15.60
2019-02-26T09:55:03.785Z,15.60
2019-02-26T09:57:29.952Z,15.50
2019-02-26T09:59:58.193Z,15.60
2019-02-26T10:02:24.121Z,15.60
2019-02-26T10:04:49.537Z,15.60
2019-02-26T10:07:14.805Z,15.60
2019-02-26T10:09:45.771Z,15.60
2019-02-26T10:12:09.774Z,15.60
2019-02-26T10:14:33.930Z,15.60
2019-02-26T10:16:59.615Z,15.60
2019-02-26T10:19:25.780Z,15.60
2019-02-26T10:21:53.237Z,15.60
2019-02-26T10:24:22.972Z,15.60
2019-02-26T10:26:45.608Z,15.60
2019-02-26T10:29:11.751Z,15.60
2019-02-26T10:31:40.437Z,15.60
2019-02-26T10:34:07.889Z,15.60
2019-02-26T10:36:32.547Z,15.60
2019-02-26T10:38:57.796Z,15.60
2019-02-26T10:41:22.682Z,15.60
2019-02-26T10:43:48.839Z,15.60
2019-02-26T10:46:15.763Z,15.60
2019-02-26T10:48:43.422Z,15.60
2019-02-26T10:51:08.112Z,15.60
2019-02-26T10:53:34.265Z,15.60
2019-02-26T10:56:00.435Z,15.60
2019-02-26T10:58:26.603Z,15.60
2019-02-26T11:00:55.602Z,15.60
2019-02-26T11:03:20.215Z,15.60
2019-02-26T11:05:48.760Z,15.60
2019-02-26T11:08:12.203Z,15.60
2019-02-26T11:10:41.397Z,15.60
2019-02-26T11:13:04.574Z,15.60
2019-02-26T11:15:33.395Z,15.60
2019-02-26T11:17:56.931Z,15.60
2019-02-26T11:20:27.030Z,15.60
2019-02-26T11:22:50.259Z,15.60
2019-02-26T11:25:17.941Z,15.60
2019-02-26T11:27:43.472Z,15.60
2019-02-26T11:30:07.942Z,15.60
2019-02-26T11:32:37.902Z,15.60
2019-02-26T11:35:02.449Z,15.60
2019-02-26T11:37:27.139Z,15.60
2019-02-26T11:39:54.990Z,15.60
2019-02-26T11:42:21.246Z,15.60
2019-02-26T11:44:45.076Z,15.60
2019-02-26T11:47:13.508Z,15.60
2019-02-26T11:49:39.354Z,15.60
2019-02-26T11:52:04.344Z,15.60
2019-02-26T11:54:32.657Z,15.60
2019-02-26T11:56:56.012Z,15.60
2019-02-26T11:59:22.176Z,15.70
2019-02-26T12:01:48.323Z,15.70
2019-02-26T12:04:16.994Z,15.70
2019-02-26T12:06:40.660Z,15.70
2019-02-26T12:09:08.732Z,15.70
2019-02-26T12:11:33.020Z,15.70
2019-02-26T12:13:59.174Z,15.70
2019-02-26T12:16:28.396Z,15.70
2019-02-26T12:18:58.858Z,15.70
2019-02-26T12:21:25.187Z,15.60
2019-02-26T12:23:49.686Z,15.70
2019-02-26T12:26:18.650Z,15.70
2019-02-26T12:28:42.457Z,15.70
2019-02-26T12:31:10.963Z,15.60
2019-02-26T12:33:34.825Z,15.70
2019-02-26T12:36:02.597Z,15.70
2019-02-26T12:38:27.940Z,15.70
2019-02-26T12:40:54.091Z,15.70
2019-02-26T12:43:20.265Z,15.60
2019-02-26T12:45:46.429Z,15.70
2019-02-26T12:48:15.660Z,15.70
2019-02-26T12:50:40.476Z,15.70
2019-02-26T12:53:05.733Z,15.70
2019-02-26T12:55:34.937Z,15.70
2019-02-26T12:57:59.456Z,15.70
2019-02-26T13:00:24.329Z,15.70
2019-02-26T13:02:52.301Z,15.70
2019-02-26T13:05:19.335Z,15.70
2019-02-26T13:07:42.892Z,15.70
2019-02-26T13:10:09.041Z,15.70
2019-02-26T13:12:35.329Z,15.70
2019-02-26T13:15:04.904Z,15.70
2019-02-26T13:17:29.464Z,15.70
2019-02-26T13:19:58.968Z,15.70
2019-02-26T13:22:20.438Z,15.70
2019-02-26T13:24:46.260Z,15.70
2019-02-26T13:27:12.412Z,15.70
2019-02-26T13:29:42.412Z,15.70
2019-02-26T13:32:07.837Z,15.70
2019-02-26T13:34:30.980Z,15.70
2019-02-26T13:36:57.174Z,15.70
2019-02-26T13:39:29.975Z,15.70
2019-02-26T13:41:54.380Z,15.70
2019-02-26T13:44:15.717Z,15.80
2019-02-26T13:46:41.875Z,15.80
2019-02-26T13:49:08.022Z,15.80
2019-02-26T13:51:34.176Z,15.80
2019-02-26T13:54:00.329Z,15.80
2019-02-26T13:56:26.483Z,15.80
2019-02-26T13:58:52.645Z,15.70
2019-02-26T14:01:18.827Z,15.70
2019-02-26T14:03:44.989Z,15.80
2019-02-26T14:06:11.184Z,15.80
2019-02-26T14:08:37.512Z,15.80
2019-02-26T14:11:03.716Z,15.80
2019-02-26T14:13:29.872Z,15.80
2019-02-26T14:15:56.042Z,15.80
2019-02-26T14:18:22.200Z,15.80
2019-02-26T14:20:48.411Z,15.80
2019-02-26T14:23:14.567Z,15.90
2019-02-26T14:25:40.762Z,15.80
2019-02-26T14:28:06.921Z,15.90
2019-02-26T14:30:33.077Z,15.90
2019-02-26T14:32:59.240Z,15.90
2019-02-26T14:35:25.392Z,15.90
2019-02-26T14:37:51.544Z,15.90
2019-02-26T14:40:17.746Z,15.90
2019-02-26T14:42:43.901Z,15.90
2019-02-26T14:45:10.074Z,15.90
2019-02-26T14:47:36.243Z,15.90
2019-02-26T14:50:02.414Z,15.90
2019-02-26T14:52:28.569Z,15.90
2019-02-26T14:54:54.765Z,15.90
2019-02-26T14:57:20.926Z,15.90
2019-02-26T14:59:47.121Z,15.90
2019-02-26T15:02:14.053Z,15.90
2019-02-26T15:04:40.207Z,15.90
2019-02-26T15:07:06.373Z,15.90
2019-02-26T15:09:33.334Z,15.90
2019-02-26T15:11:59.485Z,15.90
2019-02-26T15:14:25.666Z,15.90
2019-02-26T15:16:51.812Z,16.00
2019-02-26T15:19:17.978Z,16.00
2019-02-26T15:21:44.151Z,16.00
2019-02-26T15:24:11.125Z,16.00
2019-02-26T15:26:37.293Z,16.00
2019-02-26T15:29:03.463Z,16.00
2019-02-26T15:31:29.614Z,16.00
2019-02-26T15:33:55.771Z,16.00
2019-02-26T15:36:21.933Z,16.00
2019-02-26T15:38:48.893Z,16.00
2019-02-26T15:41:15.103Z,16.00
2019-02-26T15:43:41.280Z,16.00
2019-02-26T15:46:07.435Z,16.00
2019-02-26T15:48:36.359Z,16.00
2019-02-26T15:51:00.640Z,16.00
2019-02-26T15:53:26.865Z,16.00
2019-02-26T15:55:53.012Z,16.00
2019-02-26T15:58:19.928Z,16.00
2019-02-26T16:00:46.085Z,16.00
2019-02-26T16:03:12.236Z,16.00
2019-02-26T16:05:38.421Z,16.00
2019-02-26T16:08:04.607Z,16.00
2019-02-26T16:10:30.767Z,16.00
2019-02-26T16:12:56.924Z,16.00
2019-02-26T16:15:23.081Z,16.00
2019-02-26T16:17:49.663Z,16.00
2019-02-26T16:20:15.434Z,16.00
2019-02-26T16:22:41.634Z,16.00
2019-02-26T16:25:08.301Z,16.00
2019-02-26T16:27:37.742Z,16.00
2019-02-26T16:30:00.300Z,16.00
2019-02-26T16:32:26.364Z,16.00
2019-02-26T16:34:52.993Z,16.00
2019-02-26T16:37:18.720Z,16.00
2019-02-26T16:39:44.897Z,16.00
2019-02-26T16:42:11.772Z,16.00
2019-02-26T16:44:38.407Z,16.00
2019-02-26T16:47:05.264Z,16.00
2019-02-26T16:49:30.777Z,16.00
2019-02-26T16:51:56.970Z,16.10
2019-02-26T16:54:23.981Z,16.00
2019-02-26T16:56:54.336Z,16.00
2019-02-26T16:59:17.274Z,16.00
2019-02-26T17:01:43.438Z,16.10
2019-02-26T17:04:10.535Z,16.00
2019-02-26T17:06:36.689Z,16.00
2019-02-26T17:09:02.872Z,16.10
2019-02-26T17:11:29.037Z,16.10
2019-02-26T17:13:55.192Z,16.10
2019-02-26T17:16:21.356Z,16.00
2019-02-26T17:18:47.513Z,16.00
2019-02-26T17:21:13.667Z,16.00
2019-02-26T17:23:39.821Z,16.00
2019-02-26T17:26:10.478Z,16.00
2019-02-26T17:28:36.640Z,16.00
2019-02-26T17:31:02.809Z,16.00
2019-02-26T17:33:28.969Z,16.00
2019-02-26T17:35:55.143Z,16.00
2019-02-26T17:38:21.341Z,16.00
2019-02-26T17:40:47.502Z,16.10
2019-02-26T17:43:13.652Z,16.10
2019-02-26T17:45:39.800Z,16.10
2019-02-26T17:48:06.724Z,16.10
2019-02-26T17:50:32.877Z,16.10
2019-02-26T17:52:59.797Z,16.10
2019-02-26T17:55:26.053Z,16.10
2019-02-26T17:57:52.216Z,16.10
2019-02-26T18:00:18.365Z,16.10
2019-02-26T18:02:44.510Z,16.10
2019-02-26T18:05:10.764Z,16.10
2019-02-26T18:07:38.596Z,16.10
2019-02-26T18:10:03.048Z,16.10
2019-02-26T18:12:29.197Z,16.10
2019-02-26T18:14:56.133Z,16.10
2019-02-26T18:17:21.549Z,16.10
2019-02-26T18:19:49.590Z,16.10
2019-02-26T18:22:13.894Z,16.10
2019-02-26T18:24:40.066Z,16.10
2019-02-26T18:27:06.225Z,16.10
2019-02-26T18:29:32.370Z,16.10
2019-02-26T18:31:58.522Z,16.10
2019-02-26T18:34:24.685Z,16.10
2019-02-26T18:36:50.914Z,16.10
2019-02-26T18:39:17.105Z,16.10
2019-02-26T18:41:50.589Z,16.10
2019-02-26T18:44:10.352Z,16.10
2019-02-26T18:46:36.508Z,16.10
2019-02-26T18:49:02.701Z,16.10
2019-02-26T18:51:28.850Z,16.10
2019-02-26T18:53:55.004Z,16.10
2019-02-26T18:56:21.149Z,16.10
2019-02-26T18:58:49.086Z,16.10
2019-02-26T19:01:13.503Z,16.10
2019-02-26T19:03:41.614Z,16.10
2019-02-26T19:06:05.878Z,16.10
2019-02-26T19:08:32.033Z,16.10
2019-02-26T19:10:58.181Z,16.10
2019-02-26T19:13:24.337Z,16.10
2019-02-26T19:15:50.484Z,16.10
2019-02-26T19:18:16.651Z,16.10
2019-02-26T19:20:44.271Z,16.10
2019-02-26T19:23:09.023Z,16.10
2019-02-26T19:25:35.183Z,16.10
2019-02-26T19:28:03.618Z,16.10
2019-02-26T19:30:29.780Z,16.10
2019-02-26T19:32:55.962Z,16.10
2019-02-26T19:35:22.126Z,16.10
2019-02-26T19:37:48.290Z,16.10
2019-02-26T19:40:14.441Z,16.10
2019-02-26T19:42:42.558Z,16.10
2019-02-26T19:45:08.672Z,16.10
2019-02-26T19:47:32.984Z,16.10
2019-02-26T19:49:59.136Z,16.10
2019-02-26T19:52:25.440Z,16.10
2019-02-26T19:54:51.491Z,16.10
2019-02-26T19:57:18.437Z,16.10
2019-02-26T19:59:46.884Z,16.10
2019-02-26T20:02:10.773Z,16.10
2019-02-26T20:04:38.664Z,16.10
2019-02-26T20:07:03.137Z,16.10
2019-02-26T20:09:29.301Z,16.10
2019-02-26T20:11:56.258Z,16.10
2019-02-26T20:14:22.418Z,16.10
2019-02-26T20:16:48.566Z,16.10
2019-02-26T20:19:14.713Z,16.10
2019-02-26T20:21:40.865Z,16.10
2019-02-26T20:24:07.022Z,16.10
2019-02-26T20:26:33.221Z,16.10
2019-02-26T20:28:59.365Z,16.10
2019-02-26T20:31:25.509Z,16.10
2019-02-26T20:33:51.659Z,16.10
2019-02-26T20:36:18.328Z,16.10
2019-02-26T20:38:44.013Z,16.10
2019-02-26T20:41:10.926Z,16.10
2019-02-26T20:43:37.400Z,16.10
2019-02-26T20:46:03.270Z,16.10
2019-02-26T20:48:29.418Z,16.10
2019-02-26T20:50:56.551Z,16.00
2019-02-26T20:53:21.763Z,16.10
2019-02-26T20:55:52.534Z,16.00
2019-02-26T20:58:14.106Z,16.10
2019-02-26T21:00:42.475Z,16.00
2019-02-26T21:03:07.993Z,16.00
2019-02-26T21:05:32.664Z,16.00
2019-02-26T21:07:59.020Z,16.00
2019-02-26T21:10:25.013Z,16.00
2019-02-26T21:12:51.165Z,16.00
2019-02-26T21:15:17.318Z,16.00
2019-02-26T21:17:43.472Z,16.00
2019-02-26T21:20:09.634Z,16.00
2019-02-26T21:22:35.789Z,16.00
2019-02-26T21:25:01.946Z,16.00
2019-02-26T21:27:28.862Z,16.00
2019-02-26T21:29:55.014Z,16.00
2019-02-26T21:32:25.383Z,16.00
2019-02-26T21:34:47.994Z,16.00
2019-02-26T21:37:13.544Z,16.00
2019-02-26T21:39:43.552Z,16.00
2019-02-26T21:42:05.919Z,16.00
2019-02-26T21:44:32.240Z,16.00
2019-02-26T21:46:58.391Z,16.00
2019-02-26T21:49:24.548Z,16.00
2019-02-26T21:51:50.699Z,16.00
2019-02-26T21:54:16.854Z,16.00
2019-02-26T21:56:43.020Z,16.00
2019-02-26T21:59:09.174Z,16.00
2019-02-26T22:01:35.737Z,16.00
2019-02-26T22:04:01.884Z,16.00
2019-02-26T22:06:28.056Z,16.00
2019-02-26T22:08:54.904Z,16.00
2019-02-26T22:11:20.440Z,16.00
2019-02-26T22:13:46.590Z,16.00
2019-02-26T22:16:14.903Z,16.00
2019-02-26T22:18:38.944Z,16.00
2019-02-26T22:21:05.103Z,16.00
2019-02-26T22:23:34.072Z,16.00
2019-02-26T22:25:57.436Z,15.90
2019-02-26T22:28:23.585Z,15.90
2019-02-26T22:30:55.692Z,15.90
2019-02-26T22:33:17.841Z,15.90
2019-02-26T22:35:43.997Z,15.90
2019-02-26T22:38:12.583Z,15.90
2019-02-26T22:40:36.360Z,15.90
2019-02-26T22:43:02.531Z,15.90
2019-02-26T22:45:28.698Z,15.90
2019-02-26T22:47:55.628Z,15.90
2019-02-26T22:50:21.777Z,15.90
2019-02-26T22:52:47.969Z,15.90
2019-02-26T22:55:16.587Z,15.90
2019-02-26T22:57:40.333Z,15.90
2019-02-26T23:00:06.491Z,15.90
2019-02-26T23:02:35.275Z,15.90
2019-02-26T23:04:59.602Z,15.90
2019-02-26T23:07:25.771Z,15.90
2019-02-26T23:09:52.507Z,15.90
2019-02-26T23:12:18.123Z,15.90
2019-02-26T23:14:44.276Z,15.90
2019-02-26T23:17:11.188Z,15.90
2019-02-26T23:19:39.366Z,15.90
2019-02-26T23:22:03.954Z,15.90
2019-02-26T23:24:30.122Z,15.90
2019-02-26T23:26:56.328Z,15.90
2019-02-26T23:29:22.558Z,15.90
2019-02-26T23:31:48.711Z,15.90
2019-02-26T23:34:15.963Z,15.80
2019-02-26T23:36:42.121Z,15.80
2019-02-26T23:39:08.269Z,15.90
2019-02-26T23:41:34.416Z,15.90
2019-02-26T23:44:01.336Z,15.80
2019-02-26T23:46:29.523Z,15.80
2019-02-26T23:48:53.697Z,15.80
2019-02-26T23:51:21.053Z,15.80
2019-02-26T23:53:46.041Z,15.80
2019-02-26T23:56:12.203Z,15.80
2019-02-26T23:58:39.119Z,15.80
